sensor_id;sensor_type;location;lat;lon;timestamp;temperature;humidity
43089;DHT22;28709;52.030;5.652;2024-01-06T00:02:14;5.20;99.90
43089;DHT22;28709;52.030;5.652;2024-01-06T00:04:40;5.20;99.90
43089;DHT22;28709;52.030;5.652;2024-01-06T00:07:06;5.20;99.90
43089;DHT22;28709;52.030;5.652;2024-01-06T00:09:31;5.20;99.90
43089;DHT22;28709;52.030;5.652;2024-01-06T00:11:57;5.20;99.90
43089;DHT22;28709;52.030;5.652;2024-01-06T00:14:22;5.30;99.90
43089;DHT22;28709;52.030;5.652;2024-01-06T00:16:48;5.20;99.90
43089;DHT22;28709;52.030;5.652;2024-01-06T00:19:14;5.20;99.90
43089;DHT22;28709;52.030;5.652;2024-01-06T00:21:39;5.20;99.90
43089;DHT22;28709;52.030;5.652;2024-01-06T00:24:05;5.20;99.90
43089;DHT22;28709;52.030;5.652;2024-01-06T00:26:30;5.20;99.90
43089;DHT22;28709;52.030;5.652;2024-01-06T00:28:56;5.30;99.90
43089;DHT22;28709;52.030;5.652;2024-01-06T00:31:22;5.20;99.90
43089;DHT22;28709;52.030;5.652;2024-01-06T00:33:47;5.20;99.90
43089;DHT22;28709;52.030;5.652;2024-01-06T00:36:13;5.20;99.90
43089;DHT22;28709;52.030;5.652;2024-01-06T00:38:38;5.20;99.90
43089;DHT22;28709;52.030;5.652;2024-01-06T00:41:04;5.20;99.90
43089;DHT22;28709;52.030;5.652;2024-01-06T00:43:30;5.20;99.90
43089;DHT22;28709;52.030;5.652;2024-01-06T00:45:55;5.20;99.90
43089;DHT22;28709;52.030;5.652;2024-01-06T00:48:21;5.20;99.90
43089;DHT22;28709;52.030;5.652;2024-01-06T00:50:46;5.20;99.90
43089;DHT22;28709;52.030;5.652;2024-01-06T00:53:12;5.20;99.90
43089;DHT22;28709;52.030;5.652;2024-01-06T00:55:38;5.20;99.90
43089;DHT22;28709;52.030;5.652;2024-01-06T00:58:04;5.20;99.90
43089;DHT22;28709;52.030;5.652;2024-01-06T01:00:29;5.10;99.90
43089;DHT22;28709;52.030;5.652;2024-01-06T01:02:55;5.10;99.90
43089;DHT22;28709;52.030;5.652;2024-01-06T01:05:21;5.00;99.90
43089;DHT22;28709;52.030;5.652;2024-01-06T01:07:46;5.00;99.90
43089;DHT22;28709;52.030;5.652;2024-01-06T01:10:12;5.00;99.90
43089;DHT22;28709;52.030;5.652;2024-01-06T01:12:38;5.00;99.90
43089;DHT22;28709;52.030;5.652;2024-01-06T01:15:05;5.00;99.90
43089;DHT22;28709;52.030;5.652;2024-01-06T01:17:30;5.00;99.90
43089;DHT22;28709;52.030;5.652;2024-01-06T01:19:56;5.00;99.90
43089;DHT22;28709;52.030;5.652;2024-01-06T01:22:22;5.00;99.90
43089;DHT22;28709;52.030;5.652;2024-01-06T01:24:47;5.10;99.90
43089;DHT22;28709;52.030;5.652;2024-01-06T01:27:13;5.00;99.90
43089;DHT22;28709;52.030;5.652;2024-01-06T01:29:38;5.00;99.90
43089;DHT22;28709;52.030;5.652;2024-01-06T01:32:04;5.00;99.90
43089;DHT22;28709;52.030;5.652;2024-01-06T01:34:30;5.00;99.90
43089;DHT22;28709;52.030;5.652;2024-01-06T01:36:56;5.00;99.90
43089;DHT22;28709;52.030;5.652;2024-01-06T01:39:21;5.00;99.90
43089;DHT22;28709;52.030;5.652;2024-01-06T01:41:47;5.00;99.90
43089;DHT22;28709;52.030;5.652;2024-01-06T01:44:12;5.00;99.90
43089;DHT22;28709;52.030;5.652;2024-01-06T01:46:38;4.90;99.90
43089;DHT22;28709;52.030;5.652;2024-01-06T01:49:04;4.90;99.90
43089;DHT22;28709;52.030;5.652;2024-01-06T01:51:34;4.80;99.90
43089;DHT22;28709;52.030;5.652;2024-01-06T01:54:01;4.80;99.90
43089;DHT22;28709;52.030;5.652;2024-01-06T01:56:30;4.80;99.90
43089;DHT22;28709;52.030;5.652;2024-01-06T01:59:03;4.80;99.90
43089;DHT22;28709;52.030;5.652;2024-01-06T02:01:30;4.80;99.90
43089;DHT22;28709;52.030;5.652;2024-01-06T02:03:57;4.80;99.90
43089;DHT22;28709;52.030;5.652;2024-01-06T02:06:23;4.80;99.90
43089;DHT22;28709;52.030;5.652;2024-01-06T02:08:49;4.80;99.90
43089;DHT22;28709;52.030;5.652;2024-01-06T02:11:14;4.80;99.90
43089;DHT22;28709;52.030;5.652;2024-01-06T02:13:40;4.70;99.90
43089;DHT22;28709;52.030;5.652;2024-01-06T02:16:06;4.70;99.90
43089;DHT22;28709;52.030;5.652;2024-01-06T02:18:32;4.70;99.90
43089;DHT22;28709;52.030;5.652;2024-01-06T02:20:59;4.70;99.90
43089;DHT22;28709;52.030;5.652;2024-01-06T02:23:26;4.70;99.90
43089;DHT22;28709;52.030;5.652;2024-01-06T02:25:51;4.60;99.90
43089;DHT22;28709;52.030;5.652;2024-01-06T02:28:17;4.70;99.90
43089;DHT22;28709;52.030;5.652;2024-01-06T02:30:43;4.70;99.90
43089;DHT22;28709;52.030;5.652;2024-01-06T02:33:08;4.70;99.90
43089;DHT22;28709;52.030;5.652;2024-01-06T02:35:35;4.60;99.90
43089;DHT22;28709;52.030;5.652;2024-01-06T02:38:01;4.60;99.90
43089;DHT22;28709;52.030;5.652;2024-01-06T02:40:27;4.60;99.90
43089;DHT22;28709;52.030;5.652;2024-01-06T02:42:53;4.60;99.90
43089;DHT22;28709;52.030;5.652;2024-01-06T02:45:18;4.60;99.90
43089;DHT22;28709;52.030;5.652;2024-01-06T02:47:44;4.60;99.90
43089;DHT22;28709;52.030;5.652;2024-01-06T02:50:09;4.60;99.90
43089;DHT22;28709;52.030;5.652;2024-01-06T02:52:35;4.60;99.90
43089;DHT22;28709;52.030;5.652;2024-01-06T02:55:01;4.60;99.90
43089;DHT22;28709;52.030;5.652;2024-01-06T02:57:30;4.50;99.90
43089;DHT22;28709;52.030;5.652;2024-01-06T02:59:56;4.60;99.90
43089;DHT22;28709;52.030;5.652;2024-01-06T03:02:22;4.60;99.90
43089;DHT22;28709;52.030;5.652;2024-01-06T03:04:47;4.60;99.90
43089;DHT22;28709;52.030;5.652;2024-01-06T03:07:13;4.50;99.90
43089;DHT22;28709;52.030;5.652;2024-01-06T03:09:39;4.50;99.90
43089;DHT22;28709;52.030;5.652;2024-01-06T03:12:06;4.50;99.90
43089;DHT22;28709;52.030;5.652;2024-01-06T03:14:35;4.50;99.90
43089;DHT22;28709;52.030;5.652;2024-01-06T03:17:01;4.50;99.90
43089;DHT22;28709;52.030;5.652;2024-01-06T03:19:28;4.50;99.90
43089;DHT22;28709;52.030;5.652;2024-01-06T03:21:53;4.60;99.90
43089;DHT22;28709;52.030;5.652;2024-01-06T03:24:23;4.50;99.90
43089;DHT22;28709;52.030;5.652;2024-01-06T03:26:49;4.60;99.90
43089;DHT22;28709;52.030;5.652;2024-01-06T03:29:14;4.50;99.90
43089;DHT22;28709;52.030;5.652;2024-01-06T03:31:44;4.50;99.90
43089;DHT22;28709;52.030;5.652;2024-01-06T03:34:10;4.50;99.90
43089;DHT22;28709;52.030;5.652;2024-01-06T03:36:39;4.50;99.90
43089;DHT22;28709;52.030;5.652;2024-01-06T03:39:06;4.60;99.90
43089;DHT22;28709;52.030;5.652;2024-01-06T03:41:31;4.50;99.90
43089;DHT22;28709;52.030;5.652;2024-01-06T03:43:58;4.60;99.90
43089;DHT22;28709;52.030;5.652;2024-01-06T03:46:24;4.50;99.90
43089;DHT22;28709;52.030;5.652;2024-01-06T03:48:49;4.50;99.90
43089;DHT22;28709;52.030;5.652;2024-01-06T03:51:15;4.50;99.90
43089;DHT22;28709;52.030;5.652;2024-01-06T03:53:41;4.50;99.90
43089;DHT22;28709;52.030;5.652;2024-01-06T03:56:07;4.50;99.90
43089;DHT22;28709;52.030;5.652;2024-01-06T03:58:33;4.50;99.90
43089;DHT22;28709;52.030;5.652;2024-01-06T04:00:59;4.50;99.90
43089;DHT22;28709;52.030;5.652;2024-01-06T04:03:25;4.50;99.90
43089;DHT22;28709;52.030;5.652;2024-01-06T04:05:50;4.50;99.90
43089;DHT22;28709;52.030;5.652;2024-01-06T04:08:17;4.50;99.90
43089;DHT22;28709;52.030;5.652;2024-01-06T04:10:43;4.40;99.90
43089;DHT22;28709;52.030;5.652;2024-01-06T04:13:08;4.40;99.90
43089;DHT22;28709;52.030;5.652;2024-01-06T04:15:34;4.30;99.90
43089;DHT22;28709;52.030;5.652;2024-01-06T04:18:04;4.30;99.90
43089;DHT22;28709;52.030;5.652;2024-01-06T04:20:30;4.30;99.90
43089;DHT22;28709;52.030;5.652;2024-01-06T04:22:56;4.20;99.90
43089;DHT22;28709;52.030;5.652;2024-01-06T04:25:22;4.20;99.90
43089;DHT22;28709;52.030;5.652;2024-01-06T04:27:47;4.20;99.90
43089;DHT22;28709;52.030;5.652;2024-01-06T04:30:14;4.20;99.90
43089;DHT22;28709;52.030;5.652;2024-01-06T04:32:40;4.10;99.90
43089;DHT22;28709;52.030;5.652;2024-01-06T04:35:06;4.10;99.90
43089;DHT22;28709;52.030;5.652;2024-01-06T04:37:32;4.00;99.90
43089;DHT22;28709;52.030;5.652;2024-01-06T04:39:58;4.10;99.90
43089;DHT22;28709;52.030;5.652;2024-01-06T04:42:24;4.00;99.90
43089;DHT22;28709;52.030;5.652;2024-01-06T04:44:50;4.00;99.90
43089;DHT22;28709;52.030;5.652;2024-01-06T04:47:16;4.00;99.90
43089;DHT22;28709;52.030;5.652;2024-01-06T04:49:41;4.00;99.90
43089;DHT22;28709;52.030;5.652;2024-01-06T04:52:07;4.00;99.90
43089;DHT22;28709;52.030;5.652;2024-01-06T04:54:33;3.90;99.90
43089;DHT22;28709;52.030;5.652;2024-01-06T04:56:58;4.00;99.90
43089;DHT22;28709;52.030;5.652;2024-01-06T04:59:24;3.90;99.90
43089;DHT22;28709;52.030;5.652;2024-01-06T05:01:51;3.90;99.90
43089;DHT22;28709;52.030;5.652;2024-01-06T05:04:17;3.90;99.90
43089;DHT22;28709;52.030;5.652;2024-01-06T05:06:43;3.90;99.90
43089;DHT22;28709;52.030;5.652;2024-01-06T05:09:09;3.80;99.90
43089;DHT22;28709;52.030;5.652;2024-01-06T05:11:35;3.80;99.90
43089;DHT22;28709;52.030;5.652;2024-01-06T05:14:00;3.70;99.90
43089;DHT22;28709;52.030;5.652;2024-01-06T05:16:26;3.70;99.90
43089;DHT22;28709;52.030;5.652;2024-01-06T05:18:53;3.70;99.90
43089;DHT22;28709;52.030;5.652;2024-01-06T05:21:18;3.70;99.90
43089;DHT22;28709;52.030;5.652;2024-01-06T05:23:44;3.70;99.90
43089;DHT22;28709;52.030;5.652;2024-01-06T05:26:10;3.70;99.90
43089;DHT22;28709;52.030;5.652;2024-01-06T05:28:37;3.70;99.90
43089;DHT22;28709;52.030;5.652;2024-01-06T05:31:02;3.60;99.90
43089;DHT22;28709;52.030;5.652;2024-01-06T05:33:28;3.60;99.90
43089;DHT22;28709;52.030;5.652;2024-01-06T05:35:54;3.60;99.90
43089;DHT22;28709;52.030;5.652;2024-01-06T05:38:19;3.50;99.90
43089;DHT22;28709;52.030;5.652;2024-01-06T05:40:45;3.50;99.90
43089;DHT22;28709;52.030;5.652;2024-01-06T05:43:10;3.40;99.90
43089;DHT22;28709;52.030;5.652;2024-01-06T05:45:36;3.40;99.90
43089;DHT22;28709;52.030;5.652;2024-01-06T05:48:04;3.40;99.90
43089;DHT22;28709;52.030;5.652;2024-01-06T05:50:29;3.40;99.90
43089;DHT22;28709;52.030;5.652;2024-01-06T05:52:55;3.30;99.90
43089;DHT22;28709;52.030;5.652;2024-01-06T05:55:21;3.30;99.90
43089;DHT22;28709;52.030;5.652;2024-01-06T05:57:47;3.30;99.90
43089;DHT22;28709;52.030;5.652;2024-01-06T06:00:13;3.30;99.90
43089;DHT22;28709;52.030;5.652;2024-01-06T06:02:39;3.20;99.90
43089;DHT22;28709;52.030;5.652;2024-01-06T06:05:05;3.20;99.90
43089;DHT22;28709;52.030;5.652;2024-01-06T06:07:30;3.20;99.90
43089;DHT22;28709;52.030;5.652;2024-01-06T06:09:56;3.20;99.90
43089;DHT22;28709;52.030;5.652;2024-01-06T06:12:22;3.20;99.90
43089;DHT22;28709;52.030;5.652;2024-01-06T06:14:47;3.20;99.90
43089;DHT22;28709;52.030;5.652;2024-01-06T06:17:13;3.30;99.90
43089;DHT22;28709;52.030;5.652;2024-01-06T06:19:39;3.30;99.90
43089;DHT22;28709;52.030;5.652;2024-01-06T06:22:04;3.20;99.90
43089;DHT22;28709;52.030;5.652;2024-01-06T06:24:30;3.20;99.90
43089;DHT22;28709;52.030;5.652;2024-01-06T06:26:55;3.20;99.90
43089;DHT22;28709;52.030;5.652;2024-01-06T06:29:21;3.10;99.90
43089;DHT22;28709;52.030;5.652;2024-01-06T06:31:47;3.10;99.90
43089;DHT22;28709;52.030;5.652;2024-01-06T06:34:13;3.10;99.90
43089;DHT22;28709;52.030;5.652;2024-01-06T06:36:38;3.10;99.90
43089;DHT22;28709;52.030;5.652;2024-01-06T06:39:04;3.10;99.90
43089;DHT22;28709;52.030;5.652;2024-01-06T06:41:30;3.00;99.90
43089;DHT22;28709;52.030;5.652;2024-01-06T06:43:59;3.10;99.90
43089;DHT22;28709;52.030;5.652;2024-01-06T06:46:25;3.00;99.90
43089;DHT22;28709;52.030;5.652;2024-01-06T06:48:51;3.00;99.90
43089;DHT22;28709;52.030;5.652;2024-01-06T06:51:16;3.10;99.90
43089;DHT22;28709;52.030;5.652;2024-01-06T06:53:42;3.10;99.90
43089;DHT22;28709;52.030;5.652;2024-01-06T06:56:08;3.10;99.90
43089;DHT22;28709;52.030;5.652;2024-01-06T06:58:33;3.00;99.90
43089;DHT22;28709;52.030;5.652;2024-01-06T07:00:59;3.00;99.90
43089;DHT22;28709;52.030;5.652;2024-01-06T07:03:24;3.00;99.90
43089;DHT22;28709;52.030;5.652;2024-01-06T07:05:52;3.10;99.90
43089;DHT22;28709;52.030;5.652;2024-01-06T07:08:17;3.10;99.90
43089;DHT22;28709;52.030;5.652;2024-01-06T07:10:43;3.10;99.90
43089;DHT22;28709;52.030;5.652;2024-01-06T07:13:09;3.00;99.90
43089;DHT22;28709;52.030;5.652;2024-01-06T07:15:34;3.00;99.90
43089;DHT22;28709;52.030;5.652;2024-01-06T07:18:00;3.00;99.90
43089;DHT22;28709;52.030;5.652;2024-01-06T07:20:26;3.00;99.90
43089;DHT22;28709;52.030;5.652;2024-01-06T07:22:51;3.00;99.90
43089;DHT22;28709;52.030;5.652;2024-01-06T07:25:17;3.10;99.90
43089;DHT22;28709;52.030;5.652;2024-01-06T07:27:42;3.00;99.90
43089;DHT22;28709;52.030;5.652;2024-01-06T07:30:08;3.10;99.90
43089;DHT22;28709;52.030;5.652;2024-01-06T07:32:34;3.10;99.90
43089;DHT22;28709;52.030;5.652;2024-01-06T07:35:00;3.00;99.90
43089;DHT22;28709;52.030;5.652;2024-01-06T07:37:25;3.10;99.90
43089;DHT22;28709;52.030;5.652;2024-01-06T07:39:51;3.10;99.90
43089;DHT22;28709;52.030;5.652;2024-01-06T07:42:17;3.20;99.90
43089;DHT22;28709;52.030;5.652;2024-01-06T07:44:43;3.10;99.90
43089;DHT22;28709;52.030;5.652;2024-01-06T07:47:10;3.10;99.90
43089;DHT22;28709;52.030;5.652;2024-01-06T07:49:35;3.10;99.90
43089;DHT22;28709;52.030;5.652;2024-01-06T07:52:01;3.10;99.90
43089;DHT22;28709;52.030;5.652;2024-01-06T07:54:27;3.10;99.90
43089;DHT22;28709;52.030;5.652;2024-01-06T07:56:53;3.10;99.90
43089;DHT22;28709;52.030;5.652;2024-01-06T07:59:18;3.00;99.90
43089;DHT22;28709;52.030;5.652;2024-01-06T08:01:44;3.00;99.90
43089;DHT22;28709;52.030;5.652;2024-01-06T08:04:09;3.00;99.90
43089;DHT22;28709;52.030;5.652;2024-01-06T08:06:35;3.00;99.90
43089;DHT22;28709;52.030;5.652;2024-01-06T08:09:01;3.10;99.90
43089;DHT22;28709;52.030;5.652;2024-01-06T08:11:27;3.00;99.90
43089;DHT22;28709;52.030;5.652;2024-01-06T08:13:52;3.00;99.90
43089;DHT22;28709;52.030;5.652;2024-01-06T08:16:18;3.00;99.90
43089;DHT22;28709;52.030;5.652;2024-01-06T08:18:44;3.00;99.90
43089;DHT22;28709;52.030;5.652;2024-01-06T08:21:11;3.00;99.90
43089;DHT22;28709;52.030;5.652;2024-01-06T08:23:37;3.00;99.90
43089;DHT22;28709;52.030;5.652;2024-01-06T08:26:02;3.00;99.90
43089;DHT22;28709;52.030;5.652;2024-01-06T08:28:29;3.00;99.90
43089;DHT22;28709;52.030;5.652;2024-01-06T08:30:55;3.00;99.90
43089;DHT22;28709;52.030;5.652;2024-01-06T08:33:21;3.00;99.90
43089;DHT22;28709;52.030;5.652;2024-01-06T08:35:46;3.00;99.90
43089;DHT22;28709;52.030;5.652;2024-01-06T08:38:12;3.00;99.90
43089;DHT22;28709;52.030;5.652;2024-01-06T08:40:38;3.00;99.90
43089;DHT22;28709;52.030;5.652;2024-01-06T08:43:03;3.00;99.90
43089;DHT22;28709;52.030;5.652;2024-01-06T08:45:29;3.00;99.90
43089;DHT22;28709;52.030;5.652;2024-01-06T08:47:55;3.10;99.90
43089;DHT22;28709;52.030;5.652;2024-01-06T08:50:21;3.00;99.90
43089;DHT22;28709;52.030;5.652;2024-01-06T08:52:46;3.00;99.90
43089;DHT22;28709;52.030;5.652;2024-01-06T08:55:12;3.00;99.90
43089;DHT22;28709;52.030;5.652;2024-01-06T08:57:37;3.10;99.90
43089;DHT22;28709;52.030;5.652;2024-01-06T09:00:04;3.10;99.90
43089;DHT22;28709;52.030;5.652;2024-01-06T09:02:31;3.10;99.90
43089;DHT22;28709;52.030;5.652;2024-01-06T09:04:56;3.10;99.90
43089;DHT22;28709;52.030;5.652;2024-01-06T09:07:22;3.10;99.90
43089;DHT22;28709;52.030;5.652;2024-01-06T09:09:47;3.10;99.90
43089;DHT22;28709;52.030;5.652;2024-01-06T09:12:13;3.10;99.90
43089;DHT22;28709;52.030;5.652;2024-01-06T09:14:39;3.10;99.90
43089;DHT22;28709;52.030;5.652;2024-01-06T09:17:04;3.10;99.90
43089;DHT22;28709;52.030;5.652;2024-01-06T09:19:30;3.10;99.90
43089;DHT22;28709;52.030;5.652;2024-01-06T09:21:56;3.10;99.90
43089;DHT22;28709;52.030;5.652;2024-01-06T09:24:22;3.10;99.90
43089;DHT22;28709;52.030;5.652;2024-01-06T09:26:48;3.10;99.90
43089;DHT22;28709;52.030;5.652;2024-01-06T09:29:15;3.10;99.90
43089;DHT22;28709;52.030;5.652;2024-01-06T09:31:42;3.10;99.90
43089;DHT22;28709;52.030;5.652;2024-01-06T09:34:09;3.10;99.90
43089;DHT22;28709;52.030;5.652;2024-01-06T09:36:35;3.20;99.90
43089;DHT22;28709;52.030;5.652;2024-01-06T09:39:01;3.20;99.90
43089;DHT22;28709;52.030;5.652;2024-01-06T09:41:27;3.20;99.90
43089;DHT22;28709;52.030;5.652;2024-01-06T09:43:52;3.10;99.90
43089;DHT22;28709;52.030;5.652;2024-01-06T09:46:24;3.20;99.90
43089;DHT22;28709;52.030;5.652;2024-01-06T09:48:53;3.20;99.90
43089;DHT22;28709;52.030;5.652;2024-01-06T09:51:20;3.20;99.90
43089;DHT22;28709;52.030;5.652;2024-01-06T09:56:21;3.20;99.90
43089;DHT22;28709;52.030;5.652;2024-01-06T09:58:49;3.20;99.90
43089;DHT22;28709;52.030;5.652;2024-01-06T10:01:15;3.20;99.90
43089;DHT22;28709;52.030;5.652;2024-01-06T10:03:42;3.20;99.90
43089;DHT22;28709;52.030;5.652;2024-01-06T10:06:08;3.20;99.90
43089;DHT22;28709;52.030;5.652;2024-01-06T10:08:35;3.20;99.90
43089;DHT22;28709;52.030;5.652;2024-01-06T10:11:01;3.20;99.90
43089;DHT22;28709;52.030;5.652;2024-01-06T10:13:27;3.20;99.90
43089;DHT22;28709;52.030;5.652;2024-01-06T10:15:56;3.20;99.90
43089;DHT22;28709;52.030;5.652;2024-01-06T10:18:22;3.20;99.90
43089;DHT22;28709;52.030;5.652;2024-01-06T10:20:48;3.30;99.90
43089;DHT22;28709;52.030;5.652;2024-01-06T10:23:13;3.30;99.90
43089;DHT22;28709;52.030;5.652;2024-01-06T10:25:39;3.30;99.90
43089;DHT22;28709;52.030;5.652;2024-01-06T10:28:11;3.20;99.90
43089;DHT22;28709;52.030;5.652;2024-01-06T10:30:38;3.20;99.90
43089;DHT22;28709;52.030;5.652;2024-01-06T10:33:11;3.20;99.90
43089;DHT22;28709;52.030;5.652;2024-01-06T10:35:39;3.20;99.90
43089;DHT22;28709;52.030;5.652;2024-01-06T10:38:05;3.20;99.90
43089;DHT22;28709;52.030;5.652;2024-01-06T10:40:31;3.20;99.90
43089;DHT22;28709;52.030;5.652;2024-01-06T10:42:57;3.20;99.90
43089;DHT22;28709;52.030;5.652;2024-01-06T10:45:23;3.20;99.90
43089;DHT22;28709;52.030;5.652;2024-01-06T10:47:49;3.20;99.90
43089;DHT22;28709;52.030;5.652;2024-01-06T10:50:17;3.30;99.90
43089;DHT22;28709;52.030;5.652;2024-01-06T10:52:43;3.30;99.90
43089;DHT22;28709;52.030;5.652;2024-01-06T10:55:09;3.30;99.90
43089;DHT22;28709;52.030;5.652;2024-01-06T10:57:37;3.40;99.90
43089;DHT22;28709;52.030;5.652;2024-01-06T11:00:04;3.40;99.90
43089;DHT22;28709;52.030;5.652;2024-01-06T11:02:31;3.30;99.90
43089;DHT22;28709;52.030;5.652;2024-01-06T11:04:57;3.30;99.90
43089;DHT22;28709;52.030;5.652;2024-01-06T11:07:25;3.40;99.90
43089;DHT22;28709;52.030;5.652;2024-01-06T11:09:59;3.40;99.90
43089;DHT22;28709;52.030;5.652;2024-01-06T11:12:28;3.40;99.90
43089;DHT22;28709;52.030;5.652;2024-01-06T11:14:54;3.40;99.90
43089;DHT22;28709;52.030;5.652;2024-01-06T11:17:54;3.40;99.90
43089;DHT22;28709;52.030;5.652;2024-01-06T11:20:24;3.50;99.90
43089;DHT22;28709;52.030;5.652;2024-01-06T11:22:52;3.40;99.90
43089;DHT22;28709;52.030;5.652;2024-01-06T11:25:20;3.40;99.90
43089;DHT22;28709;52.030;5.652;2024-01-06T11:27:47;3.40;99.90
43089;DHT22;28709;52.030;5.652;2024-01-06T11:30:24;3.30;99.90
43089;DHT22;28709;52.030;5.652;2024-01-06T11:32:56;3.30;99.90
43089;DHT22;28709;52.030;5.652;2024-01-06T11:35:27;3.40;99.90
43089;DHT22;28709;52.030;5.652;2024-01-06T11:37:55;3.40;99.90
43089;DHT22;28709;52.030;5.652;2024-01-06T11:45:26;3.40;99.90
43089;DHT22;28709;52.030;5.652;2024-01-06T11:47:56;3.40;99.90
43089;DHT22;28709;52.030;5.652;2024-01-06T11:50:26;3.40;99.90
43089;DHT22;28709;52.030;5.652;2024-01-06T11:52:53;3.30;99.90
43089;DHT22;28709;52.030;5.652;2024-01-06T11:55:19;3.30;99.90
43089;DHT22;28709;52.030;5.652;2024-01-06T11:57:45;3.30;99.90
43089;DHT22;28709;52.030;5.652;2024-01-06T12:00:12;3.40;99.90
43089;DHT22;28709;52.030;5.652;2024-01-06T12:02:40;3.40;99.90
43089;DHT22;28709;52.030;5.652;2024-01-06T12:05:06;3.40;99.90
43089;DHT22;28709;52.030;5.652;2024-01-06T12:07:37;3.40;99.90
43089;DHT22;28709;52.030;5.652;2024-01-06T12:10:04;3.40;99.90
43089;DHT22;28709;52.030;5.652;2024-01-06T12:12:29;3.40;99.90
43089;DHT22;28709;52.030;5.652;2024-01-06T12:14:55;3.40;99.90
43089;DHT22;28709;52.030;5.652;2024-01-06T12:17:21;3.40;99.90
43089;DHT22;28709;52.030;5.652;2024-01-06T12:19:47;3.40;99.90
43089;DHT22;28709;52.030;5.652;2024-01-06T12:22:15;3.40;99.90
43089;DHT22;28709;52.030;5.652;2024-01-06T12:24:41;3.40;99.90
43089;DHT22;28709;52.030;5.652;2024-01-06T12:27:08;3.40;99.90
43089;DHT22;28709;52.030;5.652;2024-01-06T12:29:41;3.40;99.90
43089;DHT22;28709;52.030;5.652;2024-01-06T12:32:08;3.40;99.90
43089;DHT22;28709;52.030;5.652;2024-01-06T12:34:34;3.40;99.90
43089;DHT22;28709;52.030;5.652;2024-01-06T12:37:00;3.40;99.90
43089;DHT22;28709;52.030;5.652;2024-01-06T12:39:30;3.30;99.90
43089;DHT22;28709;52.030;5.652;2024-01-06T12:41:56;3.30;99.90
43089;DHT22;28709;52.030;5.652;2024-01-06T12:44:22;3.30;99.90
43089;DHT22;28709;52.030;5.652;2024-01-06T12:46:48;3.30;99.90
43089;DHT22;28709;52.030;5.652;2024-01-06T12:49:14;3.30;99.90
43089;DHT22;28709;52.030;5.652;2024-01-06T12:51:40;3.30;99.90
43089;DHT22;28709;52.030;5.652;2024-01-06T12:54:05;3.30;99.90
43089;DHT22;28709;52.030;5.652;2024-01-06T12:56:31;3.20;99.90
43089;DHT22;28709;52.030;5.652;2024-01-06T12:58:57;3.20;99.90
43089;DHT22;28709;52.030;5.652;2024-01-06T13:01:22;3.20;99.90
43089;DHT22;28709;52.030;5.652;2024-01-06T13:03:48;3.20;99.90
43089;DHT22;28709;52.030;5.652;2024-01-06T13:06:14;3.30;99.90
43089;DHT22;28709;52.030;5.652;2024-01-06T13:08:41;3.30;99.90
43089;DHT22;28709;52.030;5.652;2024-01-06T13:11:08;3.30;99.90
43089;DHT22;28709;52.030;5.652;2024-01-06T13:13:34;3.30;99.90
43089;DHT22;28709;52.030;5.652;2024-01-06T13:16:00;3.20;99.90
43089;DHT22;28709;52.030;5.652;2024-01-06T13:18:28;3.20;99.90
43089;DHT22;28709;52.030;5.652;2024-01-06T13:20:54;3.20;99.90
43089;DHT22;28709;52.030;5.652;2024-01-06T13:23:20;3.20;99.90
43089;DHT22;28709;52.030;5.652;2024-01-06T13:25:45;3.20;99.90
43089;DHT22;28709;52.030;5.652;2024-01-06T13:28:11;3.20;99.90
43089;DHT22;28709;52.030;5.652;2024-01-06T13:30:37;3.20;99.90
43089;DHT22;28709;52.030;5.652;2024-01-06T13:33:05;3.20;99.90
43089;DHT22;28709;52.030;5.652;2024-01-06T13:35:31;3.20;99.90
43089;DHT22;28709;52.030;5.652;2024-01-06T13:37:57;3.20;99.90
43089;DHT22;28709;52.030;5.652;2024-01-06T13:40:23;3.20;99.90
43089;DHT22;28709;52.030;5.652;2024-01-06T13:42:50;3.10;99.90
43089;DHT22;28709;52.030;5.652;2024-01-06T13:45:19;3.10;99.90
43089;DHT22;28709;52.030;5.652;2024-01-06T13:47:45;3.10;99.90
43089;DHT22;28709;52.030;5.652;2024-01-06T13:50:12;3.10;99.90
43089;DHT22;28709;52.030;5.652;2024-01-06T13:52:38;3.10;99.90
43089;DHT22;28709;52.030;5.652;2024-01-06T13:55:05;3.10;99.90
43089;DHT22;28709;52.030;5.652;2024-01-06T13:57:32;3.10;99.90
43089;DHT22;28709;52.030;5.652;2024-01-06T13:59:57;3.10;99.90
43089;DHT22;28709;52.030;5.652;2024-01-06T14:02:24;3.10;99.90
43089;DHT22;28709;52.030;5.652;2024-01-06T14:04:50;3.10;99.90
43089;DHT22;28709;52.030;5.652;2024-01-06T14:07:16;3.10;99.90
43089;DHT22;28709;52.030;5.652;2024-01-06T14:09:45;3.10;99.90
43089;DHT22;28709;52.030;5.652;2024-01-06T14:12:11;3.10;99.90
43089;DHT22;28709;52.030;5.652;2024-01-06T14:14:39;3.10;99.90
43089;DHT22;28709;52.030;5.652;2024-01-06T14:17:04;3.10;99.90
43089;DHT22;28709;52.030;5.652;2024-01-06T14:19:30;3.10;99.90
43089;DHT22;28709;52.030;5.652;2024-01-06T14:21:56;3.10;99.90
43089;DHT22;28709;52.030;5.652;2024-01-06T14:24:21;3.10;99.90
43089;DHT22;28709;52.030;5.652;2024-01-06T14:26:50;3.10;99.90
43089;DHT22;28709;52.030;5.652;2024-01-06T14:29:16;3.10;99.90
43089;DHT22;28709;52.030;5.652;2024-01-06T14:31:45;3.10;99.90
43089;DHT22;28709;52.030;5.652;2024-01-06T14:34:11;3.10;99.90
43089;DHT22;28709;52.030;5.652;2024-01-06T14:36:37;3.20;99.90
43089;DHT22;28709;52.030;5.652;2024-01-06T14:39:03;3.20;99.90
43089;DHT22;28709;52.030;5.652;2024-01-06T14:41:32;3.20;99.90
43089;DHT22;28709;52.030;5.652;2024-01-06T14:43:58;3.20;99.90
43089;DHT22;28709;52.030;5.652;2024-01-06T14:46:24;3.20;99.90
43089;DHT22;28709;52.030;5.652;2024-01-06T14:48:50;3.20;99.90
43089;DHT22;28709;52.030;5.652;2024-01-06T14:51:17;3.20;99.90
43089;DHT22;28709;52.030;5.652;2024-01-06T14:53:42;3.20;99.90
43089;DHT22;28709;52.030;5.652;2024-01-06T14:56:09;3.20;99.90
43089;DHT22;28709;52.030;5.652;2024-01-06T14:58:34;3.20;99.90
43089;DHT22;28709;52.030;5.652;2024-01-06T15:01:00;3.20;99.90
43089;DHT22;28709;52.030;5.652;2024-01-06T15:03:25;3.20;99.90
43089;DHT22;28709;52.030;5.652;2024-01-06T15:05:51;3.20;99.90
43089;DHT22;28709;52.030;5.652;2024-01-06T15:08:17;3.20;99.90
43089;DHT22;28709;52.030;5.652;2024-01-06T15:10:42;3.20;99.90
43089;DHT22;28709;52.030;5.652;2024-01-06T15:13:08;3.20;99.90
43089;DHT22;28709;52.030;5.652;2024-01-06T15:15:33;3.20;99.90
43089;DHT22;28709;52.030;5.652;2024-01-06T15:17:59;3.20;99.90
43089;DHT22;28709;52.030;5.652;2024-01-06T15:20:25;3.20;99.90
43089;DHT22;28709;52.030;5.652;2024-01-06T15:22:51;3.20;99.90
43089;DHT22;28709;52.030;5.652;2024-01-06T15:25:16;3.20;99.90
43089;DHT22;28709;52.030;5.652;2024-01-06T15:27:43;3.30;99.90
43089;DHT22;28709;52.030;5.652;2024-01-06T15:30:09;3.20;99.90
43089;DHT22;28709;52.030;5.652;2024-01-06T15:32:36;3.20;99.90
43089;DHT22;28709;52.030;5.652;2024-01-06T15:35:02;3.20;99.90
43089;DHT22;28709;52.030;5.652;2024-01-06T15:37:29;3.20;99.90
43089;DHT22;28709;52.030;5.652;2024-01-06T15:39:54;3.10;99.90
43089;DHT22;28709;52.030;5.652;2024-01-06T15:42:20;3.10;99.90
43089;DHT22;28709;52.030;5.652;2024-01-06T15:44:46;3.20;99.90
43089;DHT22;28709;52.030;5.652;2024-01-06T15:47:11;3.20;99.90